sensor_id;sensor_type;location;lat;lon;timestamp;temperature;humidity
13426;DHT22;6785;57.918;12.530;2024-01-06T00:01:19;-13.30;99.90
13426;DHT22;6785;57.918;12.530;2024-01-06T00:03:46;-13.30;99.90
13426;DHT22;6785;57.918;12.530;2024-01-06T00:06:13;-13.30;99.90
13426;DHT22;6785;57.918;12.530;2024-01-06T00:12:15;-13.40;99.90
13426;DHT22;6785;57.918;12.530;2024-01-06T00:14:43;-13.50;99.90
13426;DHT22;6785;57.918;12.530;2024-01-06T00:17:10;-13.50;99.90
13426;DHT22;6785;57.918;12.530;2024-01-06T00:19:37;-13.50;99.90
13426;DHT22;6785;57.918;12.530;2024-01-06T00:22:04;-13.50;99.90
13426;DHT22;6785;57.918;12.530;2024-01-06T00:24:31;-13.40;99.90
13426;DHT22;6785;57.918;12.530;2024-01-06T00:26:57;-13.40;99.90
13426;DHT22;6785;57.918;12.530;2024-01-06T00:29:26;-13.40;99.90
13426;DHT22;6785;57.918;12.530;2024-01-06T00:31:52;-13.40;99.90
13426;DHT22;6785;57.918;12.530;2024-01-06T00:34:49;-13.50;99.90
13426;DHT22;6785;57.918;12.530;2024-01-06T00:37:16;-13.60;99.90
13426;DHT22;6785;57.918;12.530;2024-01-06T00:39:43;-13.50;99.90
13426;DHT22;6785;57.918;12.530;2024-01-06T00:42:19;-13.60;99.90
13426;DHT22;6785;57.918;12.530;2024-01-06T00:44:47;-13.70;99.90
13426;DHT22;6785;57.918;12.530;2024-01-06T00:47:14;-13.70;99.90
13426;DHT22;6785;57.918;12.530;2024-01-06T00:53:01;-13.80;99.90
13426;DHT22;6785;57.918;12.530;2024-01-06T00:56:01;-13.80;99.90
13426;DHT22;6785;57.918;12.530;2024-01-06T00:58:28;-13.90;99.90
13426;DHT22;6785;57.918;12.530;2024-01-06T01:00:56;-13.80;99.90
13426;DHT22;6785;57.918;12.530;2024-01-06T01:03:23;-13.90;99.90
13426;DHT22;6785;57.918;12.530;2024-01-06T01:05:49;-13.90;99.90
13426;DHT22;6785;57.918;12.530;2024-01-06T01:08:23;-14.00;99.90
13426;DHT22;6785;57.918;12.530;2024-01-06T01:10:49;-13.90;99.90
13426;DHT22;6785;57.918;12.530;2024-01-06T01:13:16;-13.90;99.90
13426;DHT22;6785;57.918;12.530;2024-01-06T01:15:43;-13.90;99.90
13426;DHT22;6785;57.918;12.530;2024-01-06T01:18:11;-13.90;99.90
13426;DHT22;6785;57.918;12.530;2024-01-06T01:20:44;-13.90;99.90
13426;DHT22;6785;57.918;12.530;2024-01-06T01:23:10;-13.10;99.90
13426;DHT22;6785;57.918;12.530;2024-01-06T01:25:37;-13.90;99.90
13426;DHT22;6785;57.918;12.530;2024-01-06T01:30:35;-14.00;99.90
13426;DHT22;6785;57.918;12.530;2024-01-06T01:33:02;-14.00;99.90
13426;DHT22;6785;57.918;12.530;2024-01-06T01:35:30;-14.10;99.90
13426;DHT22;6785;57.918;12.530;2024-01-06T01:37:57;-14.10;99.90
13426;DHT22;6785;57.918;12.530;2024-01-06T01:40:24;-14.10;99.90
13426;DHT22;6785;57.918;12.530;2024-01-06T01:42:57;-14.10;99.90
13426;DHT22;6785;57.918;12.530;2024-01-06T01:45:24;-14.00;99.90
13426;DHT22;6785;57.918;12.530;2024-01-06T01:48:25;-14.00;99.90
13426;DHT22;6785;57.918;12.530;2024-01-06T01:50:53;-14.00;99.90
13426;DHT22;6785;57.918;12.530;2024-01-06T01:53:21;-14.00;99.90
13426;DHT22;6785;57.918;12.530;2024-01-06T01:55:49;-14.00;99.90
13426;DHT22;6785;57.918;12.530;2024-01-06T01:58:25;-14.00;99.90
13426;DHT22;6785;57.918;12.530;2024-01-06T02:01:13;-13.90;99.90
13426;DHT22;6785;57.918;12.530;2024-01-06T02:03:41;-13.80;99.90
13426;DHT22;6785;57.918;12.530;2024-01-06T02:06:10;-13.80;99.90
13426;DHT22;6785;57.918;12.530;2024-01-06T02:08:38;-13.80;99.90
13426;DHT22;6785;57.918;12.530;2024-01-06T02:11:05;-13.90;99.90
13426;DHT22;6785;57.918;12.530;2024-01-06T02:14:20;-13.80;99.90
13426;DHT22;6785;57.918;12.530;2024-01-06T02:16:47;-12.80;99.90
13426;DHT22;6785;57.918;12.530;2024-01-06T02:19:16;-13.70;99.90
13426;DHT22;6785;57.918;12.530;2024-01-06T02:24:13;-13.80;99.90
13426;DHT22;6785;57.918;12.530;2024-01-06T02:26:39;-13.80;99.90
13426;DHT22;6785;57.918;12.530;2024-01-06T02:29:06;-13.80;99.90
13426;DHT22;6785;57.918;12.530;2024-01-06T02:31:33;-13.80;99.90
13426;DHT22;6785;57.918;12.530;2024-01-06T02:33:59;-13.90;99.90
13426;DHT22;6785;57.918;12.530;2024-01-06T02:36:26;-14.00;99.90
13426;DHT22;6785;57.918;12.530;2024-01-06T02:38:53;-14.00;99.90
13426;DHT22;6785;57.918;12.530;2024-01-06T02:41:22;-14.00;99.90
13426;DHT22;6785;57.918;12.530;2024-01-06T02:43:48;-14.00;99.90
13426;DHT22;6785;57.918;12.530;2024-01-06T02:46:15;-14.00;99.90
13426;DHT22;6785;57.918;12.530;2024-01-06T02:48:42;-14.10;99.90
13426;DHT22;6785;57.918;12.530;2024-01-06T02:51:10;-14.20;99.90
13426;DHT22;6785;57.918;12.530;2024-01-06T02:53:38;-14.10;99.90
13426;DHT22;6785;57.918;12.530;2024-01-06T02:56:09;-14.20;99.90
13426;DHT22;6785;57.918;12.530;2024-01-06T02:58:38;-14.20;99.90
13426;DHT22;6785;57.918;12.530;2024-01-06T03:01:05;-14.30;99.90
13426;DHT22;6785;57.918;12.530;2024-01-06T03:03:31;-14.30;99.90
13426;DHT22;6785;57.918;12.530;2024-01-06T03:05:58;-14.30;99.90
13426;DHT22;6785;57.918;12.530;2024-01-06T03:08:25;-14.30;99.90
13426;DHT22;6785;57.918;12.530;2024-01-06T03:10:52;-14.20;99.90
13426;DHT22;6785;57.918;12.530;2024-01-06T03:13:19;-14.10;99.90
13426;DHT22;6785;57.918;12.530;2024-01-06T03:15:47;-14.10;99.90
13426;DHT22;6785;57.918;12.530;2024-01-06T03:18:14;-14.00;99.90
13426;DHT22;6785;57.918;12.530;2024-01-06T03:20:41;-13.90;99.90
13426;DHT22;6785;57.918;12.530;2024-01-06T03:23:08;-13.90;99.90
13426;DHT22;6785;57.918;12.530;2024-01-06T03:25:35;-14.00;99.90
13426;DHT22;6785;57.918;12.530;2024-01-06T03:28:02;-14.00;99.90
13426;DHT22;6785;57.918;12.530;2024-01-06T03:30:29;-14.00;99.90
13426;DHT22;6785;57.918;12.530;2024-01-06T03:32:57;-14.00;99.90
13426;DHT22;6785;57.918;12.530;2024-01-06T03:35:24;-13.90;99.90
13426;DHT22;6785;57.918;12.530;2024-01-06T03:37:51;-14.00;99.90
13426;DHT22;6785;57.918;12.530;2024-01-06T03:40:17;-14.10;99.90
13426;DHT22;6785;57.918;12.530;2024-01-06T03:42:44;-14.10;99.90
13426;DHT22;6785;57.918;12.530;2024-01-06T03:45:11;-14.00;99.90
13426;DHT22;6785;57.918;12.530;2024-01-06T03:47:37;-14.00;99.90
13426;DHT22;6785;57.918;12.530;2024-01-06T03:50:06;-14.00;99.90
13426;DHT22;6785;57.918;12.530;2024-01-06T03:52:33;-14.00;99.90
13426;DHT22;6785;57.918;12.530;2024-01-06T03:54:59;-13.90;99.90
13426;DHT22;6785;57.918;12.530;2024-01-06T03:57:26;-13.90;99.90
13426;DHT22;6785;57.918;12.530;2024-01-06T03:59:53;-13.90;99.90
13426;DHT22;6785;57.918;12.530;2024-01-06T04:02:20;-13.90;99.90
13426;DHT22;6785;57.918;12.530;2024-01-06T04:04:46;-13.90;99.90
13426;DHT22;6785;57.918;12.530;2024-01-06T04:07:14;-13.80;99.90
13426;DHT22;6785;57.918;12.530;2024-01-06T04:09:42;-13.90;99.90
13426;DHT22;6785;57.918;12.530;2024-01-06T04:12:09;-13.90;99.90
13426;DHT22;6785;57.918;12.530;2024-01-06T04:14:35;-13.90;99.90
13426;DHT22;6785;57.918;12.530;2024-01-06T04:17:02;-13.90;99.90
13426;DHT22;6785;57.918;12.530;2024-01-06T04:19:29;-13.90;99.90
13426;DHT22;6785;57.918;12.530;2024-01-06T04:21:56;-13.90;99.90
13426;DHT22;6785;57.918;12.530;2024-01-06T04:24:24;-13.90;99.90
13426;DHT22;6785;57.918;12.530;2024-01-06T04:26:50;-13.90;99.90
13426;DHT22;6785;57.918;12.530;2024-01-06T04:29:17;-13.90;99.90
13426;DHT22;6785;57.918;12.530;2024-01-06T04:31:44;-13.90;99.90
13426;DHT22;6785;57.918;12.530;2024-01-06T04:34:10;-13.80;99.90
13426;DHT22;6785;57.918;12.530;2024-01-06T04:36:37;-13.90;99.90
13426;DHT22;6785;57.918;12.530;2024-01-06T04:39:04;-13.90;99.90
13426;DHT22;6785;57.918;12.530;2024-01-06T04:41:32;-13.90;99.90
13426;DHT22;6785;57.918;12.530;2024-01-06T04:43:59;-13.90;99.90
13426;DHT22;6785;57.918;12.530;2024-01-06T04:46:25;-13.80;99.90
13426;DHT22;6785;57.918;12.530;2024-01-06T04:48:52;-13.80;99.90
13426;DHT22;6785;57.918;12.530;2024-01-06T04:51:19;-13.80;99.90
13426;DHT22;6785;57.918;12.530;2024-01-06T04:53:45;-13.80;99.90
13426;DHT22;6785;57.918;12.530;2024-01-06T04:56:12;-13.80;99.90
13426;DHT22;6785;57.918;12.530;2024-01-06T04:58:40;-13.80;99.90
13426;DHT22;6785;57.918;12.530;2024-01-06T05:01:07;-13.80;99.90
13426;DHT22;6785;57.918;12.530;2024-01-06T05:03:34;-13.80;99.90
13426;DHT22;6785;57.918;12.530;2024-01-06T05:06:01;-13.70;99.90
13426;DHT22;6785;57.918;12.530;2024-01-06T05:08:27;-13.70;99.90
13426;DHT22;6785;57.918;12.530;2024-01-06T05:10:56;-13.70;99.90
13426;DHT22;6785;57.918;12.530;2024-01-06T05:13:23;-13.70;99.90
13426;DHT22;6785;57.918;12.530;2024-01-06T05:15:51;-13.80;99.90
13426;DHT22;6785;57.918;12.530;2024-01-06T05:18:17;-13.80;99.90
13426;DHT22;6785;57.918;12.530;2024-01-06T05:20:44;-13.80;99.90
13426;DHT22;6785;57.918;12.530;2024-01-06T05:23:11;-13.80;99.90
13426;DHT22;6785;57.918;12.530;2024-01-06T05:25:38;-13.90;99.90
13426;DHT22;6785;57.918;12.530;2024-01-06T05:28:05;-13.90;99.90
13426;DHT22;6785;57.918;12.530;2024-01-06T05:30:31;-14.00;99.90
13426;DHT22;6785;57.918;12.530;2024-01-06T05:32:59;-14.00;99.90
13426;DHT22;6785;57.918;12.530;2024-01-06T05:35:26;-13.90;99.90
13426;DHT22;6785;57.918;12.530;2024-01-06T05:37:53;-14.00;99.90
13426;DHT22;6785;57.918;12.530;2024-01-06T05:40:20;-13.90;99.90
13426;DHT22;6785;57.918;12.530;2024-01-06T05:42:47;-13.90;99.90
13426;DHT22;6785;57.918;12.530;2024-01-06T05:45:13;-13.90;99.90
13426;DHT22;6785;57.918;12.530;2024-01-06T05:47:40;-14.00;99.90
13426;DHT22;6785;57.918;12.530;2024-01-06T05:50:09;-14.00;99.90
13426;DHT22;6785;57.918;12.530;2024-01-06T05:52:36;-14.00;99.90
13426;DHT22;6785;57.918;12.530;2024-01-06T05:55:03;-13.90;99.90
13426;DHT22;6785;57.918;12.530;2024-01-06T05:57:30;-13.90;99.90
13426;DHT22;6785;57.918;12.530;2024-01-06T05:59:57;-13.80;99.90
13426;DHT22;6785;57.918;12.530;2024-01-06T06:02:24;-13.80;99.90
13426;DHT22;6785;57.918;12.530;2024-01-06T06:04:50;-13.90;99.90
13426;DHT22;6785;57.918;12.530;2024-01-06T06:07:19;-14.00;99.90
13426;DHT22;6785;57.918;12.530;2024-01-06T06:09:46;-14.00;99.90
13426;DHT22;6785;57.918;12.530;2024-01-06T06:12:13;-14.10;99.90
13426;DHT22;6785;57.918;12.530;2024-01-06T06:14:40;-14.10;99.90
13426;DHT22;6785;57.918;12.530;2024-01-06T06:17:07;-14.20;99.90
13426;DHT22;6785;57.918;12.530;2024-01-06T06:19:34;-14.20;99.90
13426;DHT22;6785;57.918;12.530;2024-01-06T06:22:01;-14.10;99.90
13426;DHT22;6785;57.918;12.530;2024-01-06T06:24:29;-14.10;99.90
13426;DHT22;6785;57.918;12.530;2024-01-06T06:26:55;-14.10;99.90
13426;DHT22;6785;57.918;12.530;2024-01-06T06:29:22;-14.10;99.90
13426;DHT22;6785;57.918;12.530;2024-01-06T06:31:49;-14.10;99.90
13426;DHT22;6785;57.918;12.530;2024-01-06T06:34:16;-14.20;99.90
13426;DHT22;6785;57.918;12.530;2024-01-06T06:36:42;-14.20;99.90
13426;DHT22;6785;57.918;12.530;2024-01-06T06:39:09;-14.20;99.90
13426;DHT22;6785;57.918;12.530;2024-01-06T06:41:37;-14.20;99.90
13426;DHT22;6785;57.918;12.530;2024-01-06T06:44:04;-14.20;99.90
13426;DHT22;6785;57.918;12.530;2024-01-06T06:46:31;-14.30;99.90
13426;DHT22;6785;57.918;12.530;2024-01-06T06:48:58;-14.30;99.90
13426;DHT22;6785;57.918;12.530;2024-01-06T06:51:24;-14.40;99.90
13426;DHT22;6785;57.918;12.530;2024-01-06T06:53:52;-14.50;99.90
13426;DHT22;6785;57.918;12.530;2024-01-06T06:56:19;-14.60;99.90
13426;DHT22;6785;57.918;12.530;2024-01-06T06:58:47;-14.50;99.90
13426;DHT22;6785;57.918;12.530;2024-01-06T07:01:14;-14.60;99.90
13426;DHT22;6785;57.918;12.530;2024-01-06T07:03:40;-14.50;99.90
13426;DHT22;6785;57.918;12.530;2024-01-06T07:06:07;-14.50;99.90
13426;DHT22;6785;57.918;12.530;2024-01-06T07:08:34;-14.60;99.90
13426;DHT22;6785;57.918;12.530;2024-01-06T07:11:00;-14.50;99.90
13426;DHT22;6785;57.918;12.530;2024-01-06T07:13:27;-14.60;99.90
13426;DHT22;6785;57.918;12.530;2024-01-06T07:15:55;-14.60;99.90
13426;DHT22;6785;57.918;12.530;2024-01-06T07:18:22;-14.70;99.90
13426;DHT22;6785;57.918;12.530;2024-01-06T07:20:50;-14.70;99.90
13426;DHT22;6785;57.918;12.530;2024-01-06T07:23:17;-14.70;99.90
13426;DHT22;6785;57.918;12.530;2024-01-06T07:25:43;-14.60;99.90
13426;DHT22;6785;57.918;12.530;2024-01-06T07:28:10;-14.70;99.90
13426;DHT22;6785;57.918;12.530;2024-01-06T07:30:37;-14.70;99.90
13426;DHT22;6785;57.918;12.530;2024-01-06T07:33:05;-14.70;99.90
13426;DHT22;6785;57.918;12.530;2024-01-06T07:35:32;-14.80;99.90
13426;DHT22;6785;57.918;12.530;2024-01-06T07:37:59;-14.70;99.90
13426;DHT22;6785;57.918;12.530;2024-01-06T07:40:25;-14.70;99.90
13426;DHT22;6785;57.918;12.530;2024-01-06T07:42:52;-14.70;99.90
13426;DHT22;6785;57.918;12.530;2024-01-06T07:45:19;-14.60;99.90
13426;DHT22;6785;57.918;12.530;2024-01-06T07:47:45;-14.60;99.90
13426;DHT22;6785;57.918;12.530;2024-01-06T07:50:13;-14.60;99.90
13426;DHT22;6785;57.918;12.530;2024-01-06T07:52:40;-14.60;99.90
13426;DHT22;6785;57.918;12.530;2024-01-06T07:55:07;-14.60;99.90
13426;DHT22;6785;57.918;12.530;2024-01-06T07:57:34;-14.50;99.90
13426;DHT22;6785;57.918;12.530;2024-01-06T08:00:01;-14.50;99.90
13426;DHT22;6785;57.918;12.530;2024-01-06T08:02:28;-14.50;99.90
13426;DHT22;6785;57.918;12.530;2024-01-06T08:04:54;-14.50;99.90
13426;DHT22;6785;57.918;12.530;2024-01-06T08:07:24;-14.50;99.90
13426;DHT22;6785;57.918;12.530;2024-01-06T08:09:50;-14.50;99.90
13426;DHT22;6785;57.918;12.530;2024-01-06T08:12:17;-14.50;99.90
13426;DHT22;6785;57.918;12.530;2024-01-06T08:14:44;-14.50;99.90
13426;DHT22;6785;57.918;12.530;2024-01-06T08:17:10;-14.40;99.90
13426;DHT22;6785;57.918;12.530;2024-01-06T08:19:37;-14.40;99.90
13426;DHT22;6785;57.918;12.530;2024-01-06T08:22:04;-14.30;99.90
13426;DHT22;6785;57.918;12.530;2024-01-06T08:24:32;-14.20;99.90
13426;DHT22;6785;57.918;12.530;2024-01-06T08:26:59;-14.30;99.90
13426;DHT22;6785;57.918;12.530;2024-01-06T08:29:26;-14.20;99.90
13426;DHT22;6785;57.918;12.530;2024-01-06T08:31:52;-14.20;99.90
13426;DHT22;6785;57.918;12.530;2024-01-06T08:34:20;-14.10;99.90
13426;DHT22;6785;57.918;12.530;2024-01-06T08:36:46;-14.00;99.90
13426;DHT22;6785;57.918;12.530;2024-01-06T08:39:13;-14.00;99.90
13426;DHT22;6785;57.918;12.530;2024-01-06T08:41:41;-14.00;99.90
13426;DHT22;6785;57.918;12.530;2024-01-06T08:44:08;-13.90;99.90
13426;DHT22;6785;57.918;12.530;2024-01-06T08:46:35;-13.90;99.90
13426;DHT22;6785;57.918;12.530;2024-01-06T08:49:01;-13.80;99.90
13426;DHT22;6785;57.918;12.530;2024-01-06T08:51:28;-13.80;99.90
13426;DHT22;6785;57.918;12.530;2024-01-06T08:53:56;-13.70;99.90
13426;DHT22;6785;57.918;12.530;2024-01-06T08:56:23;-13.60;99.90
13426;DHT22;6785;57.918;12.530;2024-01-06T08:58:51;-13.60;99.90
13426;DHT22;6785;57.918;12.530;2024-01-06T09:01:18;-13.50;99.90
13426;DHT22;6785;57.918;12.530;2024-01-06T09:03:46;-13.40;99.90
13426;DHT22;6785;57.918;12.530;2024-01-06T09:06:13;-13.40;99.90
13426;DHT22;6785;57.918;12.530;2024-01-06T09:08:40;-13.40;99.90
13426;DHT22;6785;57.918;12.530;2024-01-06T09:11:06;-13.50;99.90
13426;DHT22;6785;57.918;12.530;2024-01-06T09:13:52;-13.50;99.90
13426;DHT22;6785;57.918;12.530;2024-01-06T09:16:20;-13.40;99.90
13426;DHT22;6785;57.918;12.530;2024-01-06T09:18:46;-13.30;99.90
13426;DHT22;6785;57.918;12.530;2024-01-06T09:21:13;-13.30;99.90
13426;DHT22;6785;57.918;12.530;2024-01-06T09:23:40;-13.30;99.90
13426;DHT22;6785;57.918;12.530;2024-01-06T09:26:07;-13.20;99.90
13426;DHT22;6785;57.918;12.530;2024-01-06T09:28:33;-13.20;99.90
13426;DHT22;6785;57.918;12.530;2024-01-06T09:31:02;-13.20;99.90
13426;DHT22;6785;57.918;12.530;2024-01-06T09:33:31;-13.30;99.90
13426;DHT22;6785;57.918;12.530;2024-01-06T09:35:59;-13.30;99.90
13426;DHT22;6785;57.918;12.530;2024-01-06T09:38:26;-13.30;99.90
13426;DHT22;6785;57.918;12.530;2024-01-06T09:40:53;-13.30;99.90
13426;DHT22;6785;57.918;12.530;2024-01-06T09:43:20;-13.20;99.90
13426;DHT22;6785;57.918;12.530;2024-01-06T09:45:54;-13.10;99.90
13426;DHT22;6785;57.918;12.530;2024-01-06T09:48:32;-13.10;99.90
13426;DHT22;6785;57.918;12.530;2024-01-06T09:51:02;-13.20;99.90
13426;DHT22;6785;57.918;12.530;2024-01-06T09:53:34;-13.10;99.90
13426;DHT22;6785;57.918;12.530;2024-01-06T09:56:09;-12.90;99.90
13426;DHT22;6785;57.918;12.530;2024-01-06T09:58:38;-12.80;99.90
13426;DHT22;6785;57.918;12.530;2024-01-06T10:01:21;-12.70;99.90
13426;DHT22;6785;57.918;12.530;2024-01-06T10:03:49;-12.60;99.90
13426;DHT22;6785;57.918;12.530;2024-01-06T10:06:17;-12.50;99.90
13426;DHT22;6785;57.918;12.530;2024-01-06T10:08:44;-12.40;99.90
13426;DHT22;6785;57.918;12.530;2024-01-06T10:11:11;-12.30;99.90
13426;DHT22;6785;57.918;12.530;2024-01-06T10:13:38;-12.10;99.90
13426;DHT22;6785;57.918;12.530;2024-01-06T10:16:05;-12.00;99.90
13426;DHT22;6785;57.918;12.530;2024-01-06T10:18:31;-12.00;99.90
13426;DHT22;6785;57.918;12.530;2024-01-06T10:21:00;-12.00;99.90
13426;DHT22;6785;57.918;12.530;2024-01-06T10:23:29;-12.00;99.90
13426;DHT22;6785;57.918;12.530;2024-01-06T10:25:58;-11.90;99.90
13426;DHT22;6785;57.918;12.530;2024-01-06T10:28:25;-11.80;99.90
13426;DHT22;6785;57.918;12.530;2024-01-06T10:30:52;-11.80;99.90
13426;DHT22;6785;57.918;12.530;2024-01-06T10:33:19;-11.70;99.90
13426;DHT22;6785;57.918;12.530;2024-01-06T10:35:47;-11.70;99.90
13426;DHT22;6785;57.918;12.530;2024-01-06T10:38:15;-11.70;99.90
13426;DHT22;6785;57.918;12.530;2024-01-06T10:40:56;-11.80;99.90
13426;DHT22;6785;57.918;12.530;2024-01-06T10:43:25;-11.80;99.90
13426;DHT22;6785;57.918;12.530;2024-01-06T10:45:53;-11.70;99.90
13426;DHT22;6785;57.918;12.530;2024-01-06T10:48:24;-11.60;99.90
13426;DHT22;6785;57.918;12.530;2024-01-06T10:50:51;-11.60;99.90
13426;DHT22;6785;57.918;12.530;2024-01-06T10:53:20;-11.50;99.90
13426;DHT22;6785;57.918;12.530;2024-01-06T10:55:49;-11.40;99.90
13426;DHT22;6785;57.918;12.530;2024-01-06T10:58:17;-11.20;99.90
13426;DHT22;6785;57.918;12.530;2024-01-06T11:00:44;-11.20;99.90
13426;DHT22;6785;57.918;12.530;2024-01-06T11:03:11;-11.10;99.90
13426;DHT22;6785;57.918;12.530;2024-01-06T11:05:40;-11.00;99.90
13426;DHT22;6785;57.918;12.530;2024-01-06T11:08:07;-11.00;99.90
13426;DHT22;6785;57.918;12.530;2024-01-06T11:10:37;-11.10;99.90
13426;DHT22;6785;57.918;12.530;2024-01-06T11:13:09;-11.10;99.90
13426;DHT22;6785;57.918;12.530;2024-01-06T11:15:43;-11.10;99.90
13426;DHT22;6785;57.918;12.530;2024-01-06T11:18:34;-11.10;99.90
13426;DHT22;6785;57.918;12.530;2024-01-06T11:21:17;-11.00;99.90
13426;DHT22;6785;57.918;12.530;2024-01-06T11:23:44;-11.10;99.90
13426;DHT22;6785;57.918;12.530;2024-01-06T11:26:13;-11.00;99.90
13426;DHT22;6785;57.918;12.530;2024-01-06T11:28:44;-10.90;99.90
13426;DHT22;6785;57.918;12.530;2024-01-06T11:31:14;-10.90;99.90
13426;DHT22;6785;57.918;12.530;2024-01-06T11:33:41;-10.90;99.90
13426;DHT22;6785;57.918;12.530;2024-01-06T11:36:09;-10.90;99.90
13426;DHT22;6785;57.918;12.530;2024-01-06T11:38:38;-10.90;99.90
13426;DHT22;6785;57.918;12.530;2024-01-06T11:41:07;-10.80;99.90
13426;DHT22;6785;57.918;12.530;2024-01-06T11:43:38;-10.90;99.90
13426;DHT22;6785;57.918;12.530;2024-01-06T11:46:06;-10.80;99.90
13426;DHT22;6785;57.918;12.530;2024-01-06T11:48:34;-10.80;99.90
13426;DHT22;6785;57.918;12.530;2024-01-06T11:51:03;-10.80;99.90
13426;DHT22;6785;57.918;12.530;2024-01-06T11:53:30;-10.80;99.90
13426;DHT22;6785;57.918;12.530;2024-01-06T11:55:56;-10.80;99.90
13426;DHT22;6785;57.918;12.530;2024-01-06T11:58:23;-10.70;99.90
13426;DHT22;6785;57.918;12.530;2024-01-06T12:00:56;-10.70;99.90
13426;DHT22;6785;57.918;12.530;2024-01-06T12:03:23;-10.70;99.90
13426;DHT22;6785;57.918;12.530;2024-01-06T12:05:59;-10.60;99.90
13426;DHT22;6785;57.918;12.530;2024-01-06T12:08:26;-10.60;99.90
13426;DHT22;6785;57.918;12.530;2024-01-06T12:11:02;-10.60;99.90
13426;DHT22;6785;57.918;12.530;2024-01-06T12:13:29;-10.60;99.90
13426;DHT22;6785;57.918;12.530;2024-01-06T12:15:57;-10.60;99.90
13426;DHT22;6785;57.918;12.530;2024-01-06T12:18:25;-10.50;99.90
13426;DHT22;6785;57.918;12.530;2024-01-06T12:20:52;-10.50;99.90
13426;DHT22;6785;57.918;12.530;2024-01-06T12:23:25;-10.60;99.90
13426;DHT22;6785;57.918;12.530;2024-01-06T12:25:53;-10.60;99.90
13426;DHT22;6785;57.918;12.530;2024-01-06T12:28:20;-10.50;99.90
13426;DHT22;6785;57.918;12.530;2024-01-06T12:30:46;-10.50;99.90
13426;DHT22;6785;57.918;12.530;2024-01-06T12:33:14;-10.50;99.90
13426;DHT22;6785;57.918;12.530;2024-01-06T12:35:41;-10.50;99.90
13426;DHT22;6785;57.918;12.530;2024-01-06T12:38:08;-10.50;99.90
13426;DHT22;6785;57.918;12.530;2024-01-06T12:40:35;-10.50;99.90
13426;DHT22;6785;57.918;12.530;2024-01-06T12:43:03;-10.50;99.90
13426;DHT22;6785;57.918;12.530;2024-01-06T12:45:30;-10.50;99.90
13426;DHT22;6785;57.918;12.530;2024-01-06T12:47:56;-10.50;99.90
13426;DHT22;6785;57.918;12.530;2024-01-06T12:50:24;-10.50;99.90
13426;DHT22;6785;57.918;12.530;2024-01-06T12:52:51;-10.50;99.90
13426;DHT22;6785;57.918;12.530;2024-01-06T12:55:18;-10.50;99.90
13426;DHT22;6785;57.918;12.530;2024-01-06T12:57:44;-10.40;99.90
13426;DHT22;6785;57.918;12.530;2024-01-06T13:00:12;-10.40;99.90
13426;DHT22;6785;57.918;12.530;2024-01-06T13:02:39;-10.40;99.90
13426;DHT22;6785;57.918;12.530;2024-01-06T13:05:06;-10.30;99.90
13426;DHT22;6785;57.918;12.530;2024-01-06T13:07:35;-10.30;99.90
13426;DHT22;6785;57.918;12.530;2024-01-06T13:10:03;-10.30;99.90
13426;DHT22;6785;57.918;12.530;2024-01-06T13:12:29;-10.30;99.90
13426;DHT22;6785;57.918;12.530;2024-01-06T13:14:56;-10.20;99.90
13426;DHT22;6785;57.918;12.530;2024-01-06T13:17:24;-10.30;99.90
13426;DHT22;6785;57.918;12.530;2024-01-06T13:19:51;-10.30;99.90
13426;DHT22;6785;57.918;12.530;2024-01-06T13:22:17;-10.30;99.90
13426;DHT22;6785;57.918;12.530;2024-01-06T13:24:48;-10.20;99.90
13426;DHT22;6785;57.918;12.530;2024-01-06T13:27:15;-10.30;99.90
13426;DHT22;6785;57.918;12.530;2024-01-06T13:29:41;-10.30;99.90
13426;DHT22;6785;57.918;12.530;2024-01-06T13:32:08;-10.30;99.90
13426;DHT22;6785;57.918;12.530;2024-01-06T13:34:36;-10.30;99.90
13426;DHT22;6785;57.918;12.530;2024-01-06T13:37:03;-10.30;99.90
13426;DHT22;6785;57.918;12.530;2024-01-06T13:39:31;-10.30;99.90
13426;DHT22;6785;57.918;12.530;2024-01-06T13:41:59;-10.30;99.90
13426;DHT22;6785;57.918;12.530;2024-01-06T13:44:25;-10.30;99.90
13426;DHT22;6785;57.918;12.530;2024-01-06T13:46:52;-10.30;99.90
13426;DHT22;6785;57.918;12.530;2024-01-06T13:49:20;-10.20;99.90
13426;DHT22;6785;57.918;12.530;2024-01-06T13:51:48;-10.10;99.90
13426;DHT22;6785;57.918;12.530;2024-01-06T13:54:15;-10.00;99.90
13426;DHT22;6785;57.918;12.530;2024-01-06T13:56:41;-10.00;99.90
13426;DHT22;6785;57.918;12.530;2024-01-06T13:59:09;-10.00;99.90
13426;DHT22;6785;57.918;12.530;2024-01-06T14:01:36;-10.00;99.90
13426;DHT22;6785;57.918;12.530;2024-01-06T14:04:03;-10.10;99.90
13426;DHT22;6785;57.918;12.530;2024-01-06T14:06:31;-10.10;99.90
13426;DHT22;6785;57.918;12.530;2024-01-06T14:08:59;-10.10;99.90
13426;DHT22;6785;57.918;12.530;2024-01-06T14:11:27;-10.00;99.90
13426;DHT22;6785;57.918;12.530;2024-01-06T14:13:56;-10.00;99.90
13426;DHT22;6785;57.918;12.530;2024-01-06T14:16:25;-10.00;99.90
13426;DHT22;6785;57.918;12.530;2024-01-06T14:18:52;-10.00;99.90
13426;DHT22;6785;57.918;12.530;2024-01-06T14:21:19;-10.00;99.90
13426;DHT22;6785;57.918;12.530;2024-01-06T14:23:45;-10.00;99.90
13426;DHT22;6785;57.918;12.530;2024-01-06T14:26:13;-10.00;99.90
13426;DHT22;6785;57.918;12.530;2024-01-06T14:28:40;-10.00;99.90
13426;DHT22;6785;57.918;12.530;2024-01-06T14:31:07;-10.00;99.90
13426;DHT22;6785;57.918;12.530;2024-01-06T14:33:36;-10.00;99.90
13426;DHT22;6785;57.918;12.530;2024-01-06T14:36:04;-10.00;99.90
13426;DHT22;6785;57.918;12.530;2024-01-06T14:38:31;-10.10;99.90
13426;DHT22;6785;57.918;12.530;2024-01-06T14:40:57;-10.10;99.90
13426;DHT22;6785;57.918;12.530;2024-01-06T14:43:24;-10.10;99.90
13426;DHT22;6785;57.918;12.530;2024-01-06T14:45:51;-10.00;99.90
13426;DHT22;6785;57.918;12.530;2024-01-06T14:48:18;-10.00;99.90
13426;DHT22;6785;57.918;12.530;2024-01-06T14:50:46;-10.00;99.90
13426;DHT22;6785;57.918;12.530;2024-01-06T14:53:13;-10.00;99.90
13426;DHT22;6785;57.918;12.530;2024-01-06T14:55:40;-10.00;99.90
13426;DHT22;6785;57.918;12.530;2024-01-06T14:58:07;-10.00;99.90
13426;DHT22;6785;57.918;12.530;2024-01-06T15:00:34;-10.00;99.90
13426;DHT22;6785;57.918;12.530;2024-01-06T15:03:01;-10.10;99.90
13426;DHT22;6785;57.918;12.530;2024-01-06T15:05:28;-10.10;99.90
13426;DHT22;6785;57.918;12.530;2024-01-06T15:07:56;-10.10;99.90
13426;DHT22;6785;57.918;12.530;2024-01-06T15:10:23;-10.10;99.90
13426;DHT22;6785;57.918;12.530;2024-01-06T15:12:50;-10.20;99.90
13426;DHT22;6785;57.918;12.530;2024-01-06T15:15:17;-10.30;99.90
13426;DHT22;6785;57.918;12.530;2024-01-06T15:17:44;-10.30;99.90
13426;DHT22;6785;57.918;12.530;2024-01-06T15:20:12;-10.30;99.90
13426;DHT22;6785;57.918;12.530;2024-01-06T15:22:39;-10.30;99.90
13426;DHT22;6785;57.918;12.530;2024-01-06T15:25:07;-10.40;99.90
13426;DHT22;6785;57.918;12.530;2024-01-06T15:27:35;-10.40;99.90
13426;DHT22;6785;57.918;12.530;2024-01-06T15:30:02;-10.50;99.90
13426;DHT22;6785;57.918;12.530;2024-01-06T15:32:33;-10.60;99.90